createdAt,value
2019-02-09T00:00:56.946Z,48.30
2019-02-09T00:03:25.898Z,48.30
2019-02-09T00:05:53.875Z,48.00
2019-02-09T00:08:21.776Z,47.70
2019-02-09T00:10:49.902Z,47.60
2019-02-09T00:13:17.850Z,47.60
2019-02-09T00:15:46.574Z,47.60
2019-02-09T00:18:14.495Z,47.20
2019-02-09T00:20:42.413Z,47.50
2019-02-09T00:23:10.396Z,47.50
2019-02-09T00:25:38.750Z,47.50
2019-02-09T00:28:06.695Z,47.50
2019-02-09T00:30:34.725Z,47.20
2019-02-09T00:33:02.879Z,47.50
2019-02-09T00:35:30.924Z,47.50
2019-02-09T00:37:58.873Z,47.70
2019-02-09T00:40:26.967Z,47.70
2019-02-09T00:42:55.704Z,47.70
2019-02-09T00:45:23.694Z,48.30
2019-02-09T00:47:51.881Z,48.20
2019-02-09T00:50:20.898Z,48.60
2019-02-09T00:52:48.815Z,48.80
2019-02-09T00:55:17.078Z,49.10
2019-02-09T00:57:45.164Z,48.90
2019-02-09T01:00:17.183Z,49.30
2019-02-09T01:02:45.124Z,50.10
2019-02-09T01:05:15.347Z,50.00
2019-02-09T01:07:43.244Z,50.00
2019-02-09T01:10:12.830Z,50.80
2019-02-09T01:12:41.101Z,51.00
2019-02-09T01:15:13.283Z,51.10
2019-02-09T01:17:41.158Z,51.10
2019-02-09T01:20:14.159Z,50.60
2019-02-09T01:22:42.200Z,50.40
2019-02-09T01:25:11.072Z,51.10
2019-02-09T01:27:39.129Z,52.90
2019-02-09T01:30:11.006Z,53.00
2019-02-09T01:32:38.988Z,53.70
2019-02-09T01:35:07.576Z,54.20
2019-02-09T01:37:35.490Z,55.50
2019-02-09T01:40:06.183Z,56.70
2019-02-09T01:42:34.139Z,58.50
2019-02-09T01:45:02.202Z,58.90
2019-02-09T01:47:30.083Z,60.50
2019-02-09T01:49:58.372Z,61.00
2019-02-09T01:52:26.320Z,63.10
2019-02-09T01:54:54.372Z,64.60
2019-02-09T01:57:22.347Z,64.50
2019-02-09T01:59:51.566Z,66.30
2019-02-09T02:02:19.503Z,67.60
2019-02-09T02:04:47.690Z,68.40
2019-02-09T02:07:15.996Z,68.90
2019-02-09T02:09:44.025Z,71.00
2019-02-09T02:12:12.999Z,72.00
2019-02-09T02:14:40.979Z,74.40
2019-02-09T02:17:09.098Z,76.10
2019-02-09T02:19:37.086Z,76.90
2019-02-09T02:22:05.071Z,77.80
2019-02-09T02:24:33.062Z,79.70
2019-02-09T02:27:00.975Z,81.30
2019-02-09T02:29:28.886Z,82.40
2019-02-09T02:31:56.896Z,83.20
2019-02-09T02:34:24.838Z,83.60
2019-02-09T02:36:52.742Z,83.90
2019-02-09T02:39:20.695Z,84.90
2019-02-09T02:41:48.774Z,84.90
2019-02-09T02:44:16.669Z,84.70
2019-02-09T02:46:44.655Z,87.00
2019-02-09T02:49:12.664Z,86.70
2019-02-09T02:51:41.072Z,86.70
2019-02-09T02:54:09.101Z,85.80
2019-02-09T02:56:37.232Z,84.30
2019-02-09T02:59:08.220Z,84.80
2019-02-09T03:01:36.198Z,85.30
2019-02-09T03:04:04.418Z,84.50
2019-02-09T03:06:32.360Z,84.20
2019-02-09T03:09:00.309Z,83.90
2019-02-09T03:11:28.284Z,82.90
2019-02-09T03:13:57.359Z,83.20
2019-02-09T03:16:25.335Z,83.20
2019-02-09T03:18:53.219Z,82.80
2019-02-09T03:21:21.281Z,83.60
2019-02-09T03:23:49.293Z,84.30
2019-02-09T03:26:17.236Z,84.50
2019-02-09T03:28:45.315Z,85.80
2019-02-09T03:31:13.286Z,84.40
2019-02-09T03:33:41.242Z,81.90
2019-02-09T03:36:09.272Z,81.00
2019-02-09T03:38:37.149Z,81.30
2019-02-09T03:41:05.339Z,81.70
2019-02-09T03:43:33.220Z,80.60
2019-02-09T03:46:02.174Z,80.40
2019-02-09T03:48:30.142Z,81.20
2019-02-09T03:50:57.994Z,81.00
2019-02-09T03:53:25.921Z,81.10
2019-02-09T03:55:54.629Z,81.50
2019-02-09T03:58:22.588Z,82.10
2019-02-09T04:00:55.484Z,83.10
2019-02-09T04:03:20.729Z,83.40
2019-02-09T04:05:48.646Z,83.70
2019-02-09T04:08:16.589Z,84.20
2019-02-09T04:10:44.493Z,84.10
2019-02-09T04:13:12.423Z,84.30
2019-02-09T04:15:40.301Z,84.80
2019-02-09T04:18:08.254Z,85.60
2019-02-09T04:20:36.160Z,86.40
2019-02-09T04:23:04.086Z,87.20
2019-02-09T04:25:31.964Z,87.60
2019-02-09T04:27:59.854Z,88.30
2019-02-09T04:30:29.642Z,88.00
2019-02-09T04:32:57.634Z,88.40
2019-02-09T04:35:25.695Z,89.20
2019-02-09T04:37:53.671Z,89.90
2019-02-09T04:40:24.469Z,90.00
2019-02-09T04:42:53.559Z,90.00
2019-02-09T04:45:21.441Z,90.30
2019-02-09T04:47:49.319Z,90.60
2019-02-09T04:50:17.296Z,91.00
2019-02-09T04:52:45.169Z,91.40
2019-02-09T04:55:16.373Z,91.70
2019-02-09T04:57:44.307Z,92.00
2019-02-09T05:00:15.207Z,92.10
2019-02-09T05:02:43.067Z,92.10
2019-02-09T05:05:10.913Z,92.30
2019-02-09T05:07:38.816Z,92.60
2019-02-09T05:10:07.966Z,92.60
2019-02-09T05:12:35.916Z,92.80
2019-02-09T05:15:05.673Z,92.70
2019-02-09T05:17:33.496Z,92.50
2019-02-09T05:20:01.353Z,92.40
2019-02-09T05:22:29.305Z,92.30
2019-02-09T05:24:57.173Z,91.90
2019-02-09T05:27:25.013Z,91.70
2019-02-09T05:29:52.868Z,91.70
2019-02-09T05:32:20.805Z,91.60
2019-02-09T05:34:48.744Z,91.60
2019-02-09T05:37:16.593Z,91.80
2019-02-09T05:39:44.543Z,91.70
2019-02-09T05:42:12.441Z,90.00
2019-02-09T05:44:40.322Z,90.40
2019-02-09T05:47:08.162Z,89.50
2019-02-09T05:49:36.216Z,87.10
2019-02-09T05:52:04.203Z,87.90
2019-02-09T05:54:32.863Z,86.80
2019-02-09T05:57:01.672Z,82.20
2019-02-09T05:59:30.087Z,84.30
2019-02-09T06:01:57.957Z,83.70
2019-02-09T06:04:25.863Z,84.00
2019-02-09T06:06:53.797Z,83.90
2019-02-09T06:09:21.775Z,83.30
2019-02-09T06:11:49.627Z,82.50
2019-02-09T06:14:17.549Z,81.70
2019-02-09T06:16:45.468Z,81.50
2019-02-09T06:19:13.378Z,80.90
2019-02-09T06:21:41.300Z,81.40
2019-02-09T06:24:09.180Z,81.40
2019-02-09T06:26:37.449Z,84.10
2019-02-09T06:29:05.349Z,85.60
2019-02-09T06:31:40.550Z,86.70
2019-02-09T06:34:03.109Z,88.10
2019-02-09T06:36:30.960Z,90.00
2019-02-09T06:38:58.810Z,90.20
2019-02-09T06:41:26.689Z,90.10
2019-02-09T06:43:54.570Z,90.60
2019-02-09T06:46:22.472Z,90.90
2019-02-09T06:48:50.617Z,91.00
2019-02-09T06:51:18.570Z,92.20
2019-02-09T06:53:46.500Z,92.80
2019-02-09T06:56:14.464Z,93.30
2019-02-09T06:58:42.489Z,93.20
2019-02-09T07:01:10.497Z,92.80
2019-02-09T07:03:38.483Z,92.20
2019-02-09T07:06:06.398Z,91.70
2019-02-09T07:08:34.311Z,91.30
2019-02-09T07:11:02.400Z,91.20
2019-02-09T07:13:30.496Z,90.80
2019-02-09T07:15:58.398Z,90.50
2019-02-09T07:18:26.321Z,89.90
2019-02-09T07:20:54.233Z,89.30
2019-02-09T07:23:23.034Z,89.00
2019-02-09T07:25:51.333Z,88.20
2019-02-09T07:28:19.245Z,86.90
2019-02-09T07:30:47.207Z,85.40
2019-02-09T07:33:15.128Z,85.40
2019-02-09T07:35:43.836Z,83.20
2019-02-09T07:38:11.817Z,82.50
2019-02-09T07:40:39.863Z,83.30
2019-02-09T07:43:07.801Z,83.70
2019-02-09T07:45:35.801Z,83.70
2019-02-09T07:48:04.485Z,84.10
2019-02-09T07:50:32.547Z,84.60
2019-02-09T07:53:00.556Z,84.50
2019-02-09T07:55:28.534Z,83.60
2019-02-09T07:57:59.255Z,82.60
2019-02-09T08:00:28.192Z,82.60
2019-02-09T08:02:56.527Z,81.20
2019-02-09T08:05:26.622Z,81.10
2019-02-09T08:07:54.863Z,81.60
2019-02-09T08:10:25.944Z,80.00
2019-02-09T08:12:54.363Z,80.40
2019-02-09T08:15:24.738Z,80.30
2019-02-09T08:17:53.032Z,80.40
2019-02-09T08:20:23.118Z,80.20
2019-02-09T08:22:51.294Z,79.10
2019-02-09T08:25:23.393Z,79.10
2019-02-09T08:27:51.884Z,79.40
2019-02-09T08:30:35.558Z,79.20
2019-02-09T08:33:04.614Z,78.30
2019-02-09T08:35:32.569Z,78.90
2019-02-09T08:38:00.515Z,78.00
2019-02-09T08:40:28.520Z,78.10
2019-02-09T08:42:56.647Z,77.20
2019-02-09T08:45:24.723Z,75.80
2019-02-09T08:47:53.445Z,74.20
2019-02-09T08:50:30.710Z,75.40
2019-02-09T08:52:58.683Z,75.30
2019-02-09T08:55:26.804Z,74.80
2019-02-09T08:57:56.073Z,73.50
2019-02-09T09:00:26.819Z,73.40
2019-02-09T09:02:54.735Z,73.40
2019-02-09T09:05:22.794Z,74.10
2019-02-09T09:07:51.084Z,73.60
2019-02-09T09:10:21.750Z,73.00
2019-02-09T09:12:49.817Z,72.90
2019-02-09T09:15:22.054Z,73.10
2019-02-09T09:17:52.117Z,72.70
2019-02-09T09:20:24.667Z,73.10
2019-02-09T09:22:53.017Z,74.90
2019-02-09T09:25:21.033Z,75.10
2019-02-09T09:27:48.904Z,74.30
2019-02-09T09:30:20.003Z,72.80
2019-02-09T09:32:48.489Z,73.40
2019-02-09T09:35:16.543Z,72.80
2019-02-09T09:37:44.852Z,73.70
2019-02-09T09:40:20.793Z,73.60
2019-02-09T09:42:49.879Z,72.40
2019-02-09T09:45:21.846Z,72.20
2019-02-09T09:47:49.930Z,70.90
2019-02-09T09:50:19.750Z,70.60
2019-02-09T09:52:47.798Z,69.30
2019-02-09T09:55:15.864Z,67.90
2019-02-09T09:57:44.488Z,66.60
2019-02-09T10:00:14.773Z,65.50
2019-02-09T10:02:42.859Z,65.60
2019-02-09T10:05:10.987Z,64.60
2019-02-09T10:07:39.036Z,64.50
2019-02-09T10:10:10.626Z,64.10
2019-02-09T10:12:38.780Z,62.90
2019-02-09T10:15:09.736Z,62.90
2019-02-09T10:17:37.827Z,62.60
2019-02-09T10:20:10.031Z,60.60
2019-02-09T10:22:38.315Z,61.10
2019-02-09T10:25:06.688Z,60.10
2019-02-09T10:27:35.036Z,59.50
2019-02-09T10:30:05.381Z,60.40
2019-02-09T10:32:33.728Z,60.60
2019-02-09T10:35:01.822Z,59.80
2019-02-09T10:37:29.741Z,59.00
2019-02-09T10:39:57.735Z,59.00
2019-02-09T10:42:26.111Z,58.20
2019-02-09T10:44:54.208Z,57.90
2019-02-09T10:47:22.403Z,57.10
2019-02-09T10:49:50.474Z,58.10
2019-02-09T10:52:19.168Z,55.90
2019-02-09T10:54:47.126Z,56.10
2019-02-09T10:57:15.189Z,57.00
2019-02-09T10:59:43.187Z,55.90
2019-02-09T11:02:11.293Z,55.20
2019-02-09T11:04:39.259Z,54.70
2019-02-09T11:07:07.349Z,55.50
2019-02-09T11:09:35.348Z,54.80
2019-02-09T11:12:03.528Z,55.90
2019-02-09T11:14:33.553Z,56.20
2019-02-09T11:17:01.518Z,55.40
2019-02-09T11:19:29.521Z,54.90
2019-02-09T11:21:57.580Z,54.60
2019-02-09T11:24:25.633Z,55.10
2019-02-09T11:26:53.752Z,54.00
2019-02-09T11:29:21.794Z,52.60
2019-02-09T11:31:49.757Z,53.00
2019-02-09T11:34:17.838Z,52.80
2019-02-09T11:36:45.881Z,52.70
2019-02-09T11:39:13.844Z,52.20
2019-02-09T11:41:42.099Z,51.10
2019-02-09T11:44:11.156Z,52.10
2019-02-09T11:49:27.781Z,50.70
2019-02-09T11:51:55.752Z,50.70
2019-02-09T11:54:24.017Z,50.90
2019-02-09T11:56:52.175Z,51.60
2019-02-09T11:59:21.310Z,51.40
2019-02-09T12:01:49.532Z,52.20
2019-02-09T12:04:36.991Z,51.90
2019-02-09T12:07:17.948Z,52.50
2019-02-09T12:10:06.419Z,52.60
2019-02-09T12:12:47.669Z,52.10
2019-02-09T12:15:35.539Z,53.50
2019-02-09T12:18:17.434Z,53.10
2019-02-09T12:21:05.210Z,53.40
2019-02-09T12:23:49.466Z,53.10
2019-02-09T12:26:29.575Z,54.30
2019-02-09T12:28:57.582Z,55.40
2019-02-09T12:31:25.586Z,56.60
2019-02-09T12:34:13.149Z,54.90
2019-02-09T12:36:53.534Z,54.80
2019-02-09T12:42:23.847Z,52.90
2019-02-09T12:45:12.768Z,53.10
2019-02-09T12:47:40.926Z,52.40
2019-02-09T12:50:10.947Z,53.80
2019-02-09T12:52:51.126Z,53.60
2019-02-09T12:55:19.327Z,53.50
2019-02-09T12:57:47.395Z,53.90
2019-02-09T13:00:25.054Z,53.40
2019-02-09T13:03:13.352Z,52.30
2019-02-09T13:06:00.800Z,53.40
2019-02-09T13:08:43.188Z,52.90
2019-02-09T13:11:32.190Z,52.20
2019-02-09T13:14:13.072Z,51.40
2019-02-09T13:17:00.513Z,50.80
2019-02-09T13:19:41.078Z,50.80
2019-02-09T13:22:28.836Z,50.90
2019-02-09T13:25:09.744Z,51.70
2019-02-09T13:27:57.368Z,51.20
2019-02-09T13:30:38.510Z,51.90
2019-02-09T13:33:26.092Z,51.40
2019-02-09T13:36:07.024Z,51.90
2019-02-09T13:38:54.660Z,52.70
2019-02-09T13:41:22.906Z,53.00
2019-02-09T13:43:51.096Z,53.20
2019-02-09T13:46:33.612Z,54.00
2019-02-09T13:49:01.877Z,54.60
2019-02-09T13:51:29.916Z,55.10
2019-02-09T13:54:10.652Z,54.70
2019-02-09T13:56:59.410Z,54.90
2019-02-09T13:59:41.528Z,54.70
2019-02-09T14:02:29.485Z,54.10
2019-02-09T14:05:10.937Z,53.90
2019-02-09T14:07:59.892Z,53.70
2019-02-09T14:10:40.874Z,53.90
2019-02-09T14:13:14.177Z,54.60
2019-02-09T14:16:08.160Z,54.00
2019-02-09T14:18:52.581Z,54.70
2019-02-09T14:21:34.659Z,54.70
2019-02-09T14:24:22.283Z,54.40
2019-02-09T14:27:02.743Z,53.10
2019-02-09T14:29:50.637Z,53.20
2019-02-09T14:32:32.795Z,53.50
2019-02-09T14:35:21.742Z,53.40
2019-02-09T14:38:02.357Z,53.10
2019-02-09T14:40:47.274Z,52.40
2019-02-09T14:43:35.751Z,51.40
2019-02-09T14:46:16.934Z,51.80
2019-02-09T14:49:05.123Z,52.50
2019-02-09T14:51:46.326Z,51.60
2019-02-09T14:54:15.345Z,52.20
2019-02-09T14:56:57.132Z,51.00
2019-02-09T14:59:44.704Z,51.50
2019-02-09T15:02:12.976Z,51.10
2019-02-09T15:05:01.721Z,51.70
2019-02-09T15:07:43.081Z,52.40
2019-02-09T15:10:30.822Z,51.70
2019-02-09T15:13:12.868Z,51.70
2019-02-09T15:16:39.415Z,51.60
2019-02-09T15:19:21.714Z,51.20
2019-02-09T15:22:09.303Z,52.20
2019-02-09T15:24:50.154Z,51.90
2019-02-09T15:27:37.882Z,51.70
2019-02-09T15:30:19.752Z,53.10
2019-02-09T15:33:07.521Z,53.60
2019-02-09T15:35:49.502Z,53.90
2019-02-09T15:38:17.497Z,54.20
2019-02-09T15:41:00.500Z,55.00
2019-02-09T15:43:50.374Z,55.40
2019-02-09T15:46:32.360Z,56.30
2019-02-09T15:49:19.809Z,57.00
2019-02-09T15:52:00.359Z,57.30
2019-02-09T15:54:47.796Z,58.20
2019-02-09T15:57:28.667Z,58.80
2019-02-09T16:00:18.081Z,59.80
2019-02-09T16:02:46.113Z,60.20
2019-02-09T16:05:14.559Z,63.80
2019-02-09T16:07:42.900Z,65.80
2019-02-09T16:10:11.444Z,68.10
2019-02-09T16:12:39.553Z,68.10
2019-02-09T16:15:11.591Z,67.70
2019-02-09T16:17:39.592Z,65.60
2019-02-09T16:20:10.946Z,64.50
2019-02-09T16:22:39.822Z,64.50
2019-02-09T16:25:28.158Z,63.20
2019-02-09T16:28:08.868Z,63.70
2019-02-09T16:30:56.509Z,62.30
2019-02-09T16:33:38.057Z,62.30
2019-02-09T16:36:28.102Z,62.00
2019-02-09T16:39:08.956Z,62.80
2019-02-09T16:41:38.985Z,60.00
2019-02-09T16:44:07.439Z,59.30
2019-02-09T16:46:50.638Z,58.50
2019-02-09T16:49:39.804Z,57.50
2019-02-09T16:52:20.976Z,57.00
2019-02-09T16:58:04.133Z,57.00
2019-02-09T17:00:46.511Z,56.70
2019-02-09T17:03:34.585Z,56.90
2019-02-09T17:06:16.845Z,56.50
2019-02-09T17:09:07.211Z,56.30
2019-02-09T17:11:53.519Z,56.20
2019-02-09T17:18:11.814Z,55.50
2019-02-09T17:20:53.768Z,54.90
2019-02-09T17:23:43.288Z,55.30
2019-02-09T17:26:29.017Z,55.10
2019-02-09T17:29:17.607Z,54.80
2019-02-09T17:32:01.292Z,54.30
2019-02-09T17:34:49.826Z,54.90
2019-02-09T17:37:19.782Z,54.90
2019-02-09T17:40:27.768Z,55.10
2019-02-09T17:42:59.738Z,54.30
2019-02-09T17:45:39.740Z,54.70
2019-02-09T17:48:08.952Z,54.30
2019-02-09T17:50:56.788Z,54.80
2019-02-09T17:53:38.831Z,54.70
2019-02-09T17:56:26.474Z,54.50
2019-02-09T17:58:55.762Z,54.60
2019-02-09T18:01:43.937Z,54.10
2019-02-09T18:04:25.815Z,53.20
2019-02-09T18:10:35.346Z,52.30
2019-02-09T18:13:16.515Z,53.20
2019-02-09T18:16:05.355Z,53.10
2019-02-09T18:18:54.950Z,51.90
2019-02-09T18:21:43.124Z,52.00
2019-02-09T18:24:26.412Z,52.40
2019-02-09T18:27:14.024Z,52.50
2019-02-09T18:29:55.075Z,53.00
2019-02-09T18:32:45.288Z,53.50
2019-02-09T18:35:26.763Z,54.10
2019-02-09T18:37:55.325Z,54.30
2019-02-09T18:40:24.561Z,54.60
2019-02-09T18:42:53.341Z,54.70
2019-02-09T18:45:24.970Z,55.30
2019-02-09T18:48:06.805Z,55.30
2019-02-09T18:50:54.890Z,54.80
2019-02-09T18:53:36.251Z,54.20
2019-02-09T18:56:24.351Z,54.40
2019-02-09T19:02:00.401Z,54.50
2019-02-09T19:04:29.469Z,54.50
2019-02-09T19:06:59.957Z,54.80
2019-02-09T19:09:28.654Z,55.00
2019-02-09T19:11:57.060Z,54.50
2019-02-09T19:14:29.551Z,56.50
2019-02-09T19:17:11.593Z,55.70
2019-02-09T19:19:55.684Z,56.40
2019-02-09T19:22:43.817Z,58.20
2019-02-09T19:25:31.302Z,59.00
2019-02-09T19:28:00.113Z,61.20
2019-02-09T19:30:29.007Z,63.10
2019-02-09T19:32:57.727Z,63.50
2019-02-09T19:35:26.473Z,63.20
2019-02-09T19:38:09.002Z,62.50
2019-02-09T19:40:57.054Z,61.80
2019-02-09T19:43:40.214Z,61.90
2019-02-09T19:46:28.600Z,62.20
2019-02-09T19:49:09.421Z,61.60
2019-02-09T19:52:00.664Z,61.70
2019-02-09T19:54:29.475Z,61.50
2019-02-09T19:56:59.887Z,61.30
2019-02-09T19:59:29.999Z,60.90
2019-02-09T20:02:01.358Z,59.90
2019-02-09T20:04:29.999Z,60.00
2019-02-09T20:07:18.342Z,60.00
2019-02-09T20:15:44.862Z,60.10
2019-02-09T20:18:30.983Z,59.30
2019-02-09T20:21:19.753Z,59.30
2019-02-09T20:23:52.304Z,58.60
2019-02-09T20:26:30.381Z,59.10
2019-02-09T20:28:57.093Z,58.80
2019-02-09T20:31:26.732Z,58.70
2019-02-09T20:33:55.450Z,58.60
2019-02-09T20:36:25.293Z,59.20
2019-02-09T20:38:55.703Z,59.40
2019-02-09T20:41:27.110Z,59.80
2019-02-09T20:43:57.226Z,59.80
2019-02-09T20:46:25.503Z,59.70
2019-02-09T20:48:54.492Z,59.80
2019-02-09T20:51:24.311Z,59.60
2019-02-09T20:53:54.976Z,60.00
2019-02-09T20:56:23.590Z,60.00
2019-02-09T20:58:53.918Z,60.30
2019-02-09T21:01:22.325Z,60.30
2019-02-09T21:04:03.205Z,60.80
2019-02-09T21:06:31.820Z,61.40
2019-02-09T21:09:00.517Z,61.30
2019-02-09T21:11:29.683Z,61.30
2019-02-09T21:14:10.800Z,61.20
2019-02-09T21:16:58.817Z,63.40
2019-02-09T21:19:39.907Z,65.40
2019-02-09T21:22:28.243Z,65.20
2019-02-09T21:24:56.633Z,64.70
2019-02-09T21:27:27.441Z,64.20
2019-02-09T21:29:58.069Z,63.80
2019-02-09T21:32:26.842Z,63.50
2019-02-09T21:35:58.056Z,63.10
2019-02-09T21:37:51.932Z,62.80
2019-02-09T21:40:34.267Z,62.80
2019-02-09T21:43:16.460Z,62.60
2019-02-09T21:46:04.984Z,62.60
2019-02-09T21:48:33.569Z,62.60
2019-02-09T21:51:21.821Z,62.30
2019-02-09T21:54:03.649Z,63.00
2019-02-09T21:56:54.570Z,61.90
2019-02-09T21:59:37.552Z,62.40
2019-02-09T22:02:42.369Z,63.20
2019-02-09T22:05:21.790Z,62.90
2019-02-09T22:08:19.258Z,62.30
2019-02-09T22:10:56.180Z,62.70
2019-02-09T22:13:44.580Z,62.60
2019-02-09T22:16:13.323Z,63.00
2019-02-09T22:18:52.395Z,62.90
2019-02-09T22:21:40.559Z,62.60
2019-02-09T22:24:21.947Z,62.40
2019-02-09T22:27:10.222Z,61.90
2019-02-09T22:29:50.989Z,61.10
2019-02-09T22:32:19.518Z,61.40
2019-02-09T22:35:08.690Z,61.30
2019-02-09T22:37:37.065Z,60.90
2019-02-09T22:40:26.757Z,61.00
2019-02-09T22:43:07.411Z,62.60
2019-02-09T22:45:55.100Z,62.10
2019-02-09T22:48:23.454Z,61.00
2019-02-09T22:51:12.954Z,60.10
2019-02-09T22:53:54.145Z,61.30
2019-02-09T22:56:41.899Z,63.50
2019-02-09T22:59:10.032Z,63.80
2019-02-09T23:01:53.070Z,63.70
2019-02-09T23:04:57.007Z,64.40
2019-02-09T23:08:04.627Z,65.10
2019-02-09T23:10:33.151Z,65.40
2019-02-09T23:13:14.111Z,66.50
2019-02-09T23:15:42.912Z,67.10
2019-02-09T23:18:11.786Z,67.40
2019-02-09T23:20:39.934Z,67.90
2019-02-09T23:23:08.145Z,69.00
2019-02-09T23:25:55.598Z,68.90
2019-02-09T23:28:23.749Z,69.20
2019-02-09T23:31:04.057Z,69.30
2019-02-09T23:33:33.379Z,69.90
2019-02-09T23:36:01.710Z,68.70
2019-02-09T23:38:50.257Z,69.10
2019-02-09T23:41:31.745Z,69.00
2019-02-09T23:44:19.383Z,69.20
2019-02-09T23:47:00.024Z,69.40
2019-02-09T23:49:47.564Z,68.60
2019-02-09T23:52:28.006Z,68.60
2019-02-09T23:55:17.914Z,68.40
2019-02-09T23:57:58.455Z,68.00
